sensor_id;sensor_type;location;lat;lon;timestamp;temperature;humidity
23769;DHT22;12064;50.890;5.424;2024-02-26T00:07:11;15.40;99.90
23769;DHT22;12064;50.890;5.424;2024-02-26T00:16:03;15.40;99.90
23769;DHT22;12064;50.890;5.424;2024-02-26T00:24:53;15.40;99.90
23769;DHT22;12064;50.890;5.424;2024-02-26T00:33:44;15.40;99.90
23769;DHT22;12064;50.890;5.424;2024-02-26T00:42:35;15.30;99.90
23769;DHT22;12064;50.890;5.424;2024-02-26T00:51:25;15.40;99.90
23769;DHT22;12064;50.890;5.424;2024-02-26T01:00:16;15.30;99.90
23769;DHT22;12064;50.890;5.424;2024-02-26T01:09:07;15.30;99.90
23769;DHT22;12064;50.890;5.424;2024-02-26T01:17:58;15.30;99.90
23769;DHT22;12064;50.890;5.424;2024-02-26T01:26:49;15.30;99.90
23769;DHT22;12064;50.890;5.424;2024-02-26T01:35:40;15.20;99.90
23769;DHT22;12064;50.890;5.424;2024-02-26T01:44:30;15.20;99.90
23769;DHT22;12064;50.890;5.424;2024-02-26T01:53:21;15.20;99.90
23769;DHT22;12064;50.890;5.424;2024-02-26T02:02:12;15.20;99.90
23769;DHT22;12064;50.890;5.424;2024-02-26T02:11:06;15.10;99.90
23769;DHT22;12064;50.890;5.424;2024-02-26T02:19:57;15.10;99.90
23769;DHT22;12064;50.890;5.424;2024-02-26T02:28:48;15.10;99.90
23769;DHT22;12064;50.890;5.424;2024-02-26T02:37:38;15.10;99.90
23769;DHT22;12064;50.890;5.424;2024-02-26T02:46:29;15.10;99.90
23769;DHT22;12064;50.890;5.424;2024-02-26T02:55:21;15.10;99.90
23769;DHT22;12064;50.890;5.424;2024-02-26T03:04:12;15.10;99.90
23769;DHT22;12064;50.890;5.424;2024-02-26T03:13:04;15.10;99.90
23769;DHT22;12064;50.890;5.424;2024-02-26T03:21:55;15.00;99.90
23769;DHT22;12064;50.890;5.424;2024-02-26T03:30:45;15.00;99.90
23769;DHT22;12064;50.890;5.424;2024-02-26T03:39:36;15.00;99.90
23769;DHT22;12064;50.890;5.424;2024-02-26T03:48:27;15.00;99.90
23769;DHT22;12064;50.890;5.424;2024-02-26T03:57:18;15.00;99.90
23769;DHT22;12064;50.890;5.424;2024-02-26T04:06:09;14.90;99.90
23769;DHT22;12064;50.890;5.424;2024-02-26T04:15:01;15.00;99.90
23769;DHT22;12064;50.890;5.424;2024-02-26T04:23:51;14.90;99.90
23769;DHT22;12064;50.890;5.424;2024-02-26T04:32:45;14.90;99.90
23769;DHT22;12064;50.890;5.424;2024-02-26T04:41:36;14.90;99.90
23769;DHT22;12064;50.890;5.424;2024-02-26T04:50:26;14.90;99.90
23769;DHT22;12064;50.890;5.424;2024-02-26T04:59:17;14.90;99.90
23769;DHT22;12064;50.890;5.424;2024-02-26T05:08:08;14.90;99.90
23769;DHT22;12064;50.890;5.424;2024-02-26T05:16:58;14.90;99.90
23769;DHT22;12064;50.890;5.424;2024-02-26T05:25:49;14.80;99.90
23769;DHT22;12064;50.890;5.424;2024-02-26T05:34:40;14.90;99.90
23769;DHT22;12064;50.890;5.424;2024-02-26T05:43:31;14.80;99.90
23769;DHT22;12064;50.890;5.424;2024-02-26T05:52:22;14.90;99.90
23769;DHT22;12064;50.890;5.424;2024-02-26T06:01:15;14.80;99.90
23769;DHT22;12064;50.890;5.424;2024-02-26T06:10:06;14.80;99.90
23769;DHT22;12064;50.890;5.424;2024-02-26T06:18:57;14.80;99.90
23769;DHT22;12064;50.890;5.424;2024-02-26T06:27:48;14.80;99.90
23769;DHT22;12064;50.890;5.424;2024-02-26T06:36:39;14.80;99.90
23769;DHT22;12064;50.890;5.424;2024-02-26T06:45:30;14.70;99.90
23769;DHT22;12064;50.890;5.424;2024-02-26T06:54:21;14.70;99.90
23769;DHT22;12064;50.890;5.424;2024-02-26T07:03:11;14.70;99.90
23769;DHT22;12064;50.890;5.424;2024-02-26T07:12:04;14.80;99.90
23769;DHT22;12064;50.890;5.424;2024-02-26T07:20:55;14.80;99.90
23769;DHT22;12064;50.890;5.424;2024-02-26T07:29:46;14.70;99.90
23769;DHT22;12064;50.890;5.424;2024-02-26T07:38:37;14.80;99.90
23769;DHT22;12064;50.890;5.424;2024-02-26T07:47:27;14.70;99.90
23769;DHT22;12064;50.890;5.424;2024-02-26T07:56:18;14.70;99.90
23769;DHT22;12064;50.890;5.424;2024-02-26T08:05:08;14.70;99.90
23769;DHT22;12064;50.890;5.424;2024-02-26T08:13:59;14.80;99.90
23769;DHT22;12064;50.890;5.424;2024-02-26T08:22:50;14.70;99.90
23769;DHT22;12064;50.890;5.424;2024-02-26T08:31:40;14.70;99.90
23769;DHT22;12064;50.890;5.424;2024-02-26T08:40:31;14.70;99.90
23769;DHT22;12064;50.890;5.424;2024-02-26T08:49:22;14.70;99.90
23769;DHT22;12064;50.890;5.424;2024-02-26T08:58:16;14.70;99.90
23769;DHT22;12064;50.890;5.424;2024-02-26T09:07:06;14.70;99.90
23769;DHT22;12064;50.890;5.424;2024-02-26T09:15:57;14.70;99.90
23769;DHT22;12064;50.890;5.424;2024-02-26T09:24:49;14.70;99.90
23769;DHT22;12064;50.890;5.424;2024-02-26T09:33:41;14.70;99.90
23769;DHT22;12064;50.890;5.424;2024-02-26T09:42:34;14.70;99.90
23769;DHT22;12064;50.890;5.424;2024-02-26T09:51:25;14.70;99.90
23769;DHT22;12064;50.890;5.424;2024-02-26T10:00:18;14.60;99.90
23769;DHT22;12064;50.890;5.424;2024-02-26T10:09:12;14.70;99.90
23769;DHT22;12064;50.890;5.424;2024-02-26T10:18:06;14.60;99.90
23769;DHT22;12064;50.890;5.424;2024-02-26T10:26:57;14.70;99.90
23769;DHT22;12064;50.890;5.424;2024-02-26T10:35:48;14.70;99.90
23769;DHT22;12064;50.890;5.424;2024-02-26T10:44:41;14.60;99.90
23769;DHT22;12064;50.890;5.424;2024-02-26T10:53:34;14.70;99.90
23769;DHT22;12064;50.890;5.424;2024-02-26T11:02:26;14.60;99.90
23769;DHT22;12064;50.890;5.424;2024-02-26T11:11:18;14.60;99.90
23769;DHT22;12064;50.890;5.424;2024-02-26T11:20:10;14.60;99.90
23769;DHT22;12064;50.890;5.424;2024-02-26T11:29:03;14.70;99.90
23769;DHT22;12064;50.890;5.424;2024-02-26T11:37:56;14.60;99.90
23769;DHT22;12064;50.890;5.424;2024-02-26T11:46:47;14.70;99.90
23769;DHT22;12064;50.890;5.424;2024-02-26T11:55:39;14.70;99.90
23769;DHT22;12064;50.890;5.424;2024-02-26T12:04:30;14.70;99.90
23769;DHT22;12064;50.890;5.424;2024-02-26T12:13:29;14.70;99.90
23769;DHT22;12064;50.890;5.424;2024-02-26T12:22:20;14.80;99.90
23769;DHT22;12064;50.890;5.424;2024-02-26T12:31:11;14.70;99.90
23769;DHT22;12064;50.890;5.424;2024-02-26T12:40:02;14.80;99.90
23769;DHT22;12064;50.890;5.424;2024-02-26T12:48:55;14.80;99.90
23769;DHT22;12064;50.890;5.424;2024-02-26T12:57:49;14.80;99.90
23769;DHT22;12064;50.890;5.424;2024-02-26T13:06:40;14.80;99.90
23769;DHT22;12064;50.890;5.424;2024-02-26T13:15:31;14.80;99.90
23769;DHT22;12064;50.890;5.424;2024-02-26T13:24:24;14.80;99.90
23769;DHT22;12064;50.890;5.424;2024-02-26T13:33:15;14.80;99.90
23769;DHT22;12064;50.890;5.424;2024-02-26T13:42:07;14.80;99.90
23769;DHT22;12064;50.890;5.424;2024-02-26T13:50:59;14.80;99.90
23769;DHT22;12064;50.890;5.424;2024-02-26T13:59:50;14.80;99.90
23769;DHT22;12064;50.890;5.424;2024-02-26T14:08:42;14.80;99.90
23769;DHT22;12064;50.890;5.424;2024-02-26T14:17:33;14.80;99.90
23769;DHT22;12064;50.890;5.424;2024-02-26T14:26:24;14.80;99.90
23769;DHT22;12064;50.890;5.424;2024-02-26T14:35:14;14.80;99.90
23769;DHT22;12064;50.890;5.424;2024-02-26T14:44:08;14.80;99.90
23769;DHT22;12064;50.890;5.424;2024-02-26T14:52:58;14.80;99.90
23769;DHT22;12064;50.890;5.424;2024-02-26T15:01:50;14.80;99.90
23769;DHT22;12064;50.890;5.424;2024-02-26T15:10:41;14.80;99.90
23769;DHT22;12064;50.890;5.424;2024-02-26T15:19:38;14.90;99.90
23769;DHT22;12064;50.890;5.424;2024-02-26T15:28:29;14.90;99.90
23769;DHT22;12064;50.890;5.424;2024-02-26T15:37:20;14.80;99.90
23769;DHT22;12064;50.890;5.424;2024-02-26T15:46:11;14.80;99.90
23769;DHT22;12064;50.890;5.424;2024-02-26T15:55:01;14.80;99.90
23769;DHT22;12064;50.890;5.424;2024-02-26T16:03:53;14.80;99.90
23769;DHT22;12064;50.890;5.424;2024-02-26T16:12:52;14.80;99.90
23769;DHT22;12064;50.890;5.424;2024-02-26T16:21:42;14.80;99.90
23769;DHT22;12064;50.890;5.424;2024-02-26T16:30:33;14.80;99.90
23769;DHT22;12064;50.890;5.424;2024-02-26T16:39:24;14.80;99.90
23769;DHT22;12064;50.890;5.424;2024-02-26T16:48:14;14.80;99.90
23769;DHT22;12064;50.890;5.424;2024-02-26T16:57:05;14.70;99.90
23769;DHT22;12064;50.890;5.424;2024-02-26T17:05:56;14.80;99.90
23769;DHT22;12064;50.890;5.424;2024-02-26T17:14:46;14.70;99.90
23769;DHT22;12064;50.890;5.424;2024-02-26T17:23:40;14.70;99.90
23769;DHT22;12064;50.890;5.424;2024-02-26T17:32:31;14.70;99.90
23769;DHT22;12064;50.890;5.424;2024-02-26T17:41:21;14.70;99.90
23769;DHT22;12064;50.890;5.424;2024-02-26T17:50:12;14.70;99.90
23769;DHT22;12064;50.890;5.424;2024-02-26T17:59:03;14.70;99.90
23769;DHT22;12064;50.890;5.424;2024-02-26T18:07:54;14.70;99.90
23769;DHT22;12064;50.890;5.424;2024-02-26T18:16:45;14.70;99.90
23769;DHT22;12064;50.890;5.424;2024-02-26T18:25:35;14.70;99.90
23769;DHT22;12064;50.890;5.424;2024-02-26T18:34:26;14.70;99.90
23769;DHT22;12064;50.890;5.424;2024-02-26T18:43:16;14.70;99.90
23769;DHT22;12064;50.890;5.424;2024-02-26T18:52:08;14.70;99.90
23769;DHT22;12064;50.890;5.424;2024-02-26T19:00:58;14.70;99.90
23769;DHT22;12064;50.890;5.424;2024-02-26T19:09:49;14.70;99.90
23769;DHT22;12064;50.890;5.424;2024-02-26T19:18:39;14.70;99.90
23769;DHT22;12064;50.890;5.424;2024-02-26T19:27:30;14.70;99.90
23769;DHT22;12064;50.890;5.424;2024-02-26T19:36:22;14.60;99.90
23769;DHT22;12064;50.890;5.424;2024-02-26T19:45:13;14.60;99.90
23769;DHT22;12064;50.890;5.424;2024-02-26T19:54:04;14.70;99.90
23769;DHT22;12064;50.890;5.424;2024-02-26T20:02:55;14.60;99.90
23769;DHT22;12064;50.890;5.424;2024-02-26T20:11:48;14.60;99.90
23769;DHT22;12064;50.890;5.424;2024-02-26T20:20:40;14.60;99.90
23769;DHT22;12064;50.890;5.424;2024-02-26T20:29:33;14.60;99.90
23769;DHT22;12064;50.890;5.424;2024-02-26T20:38:24;14.60;99.90
23769;DHT22;12064;50.890;5.424;2024-02-26T20:47:15;14.60;99.90
23769;DHT22;12064;50.890;5.424;2024-02-26T20:56:08;14.60;99.90
23769;DHT22;12064;50.890;5.424;2024-02-26T21:04:59;14.70;99.90
23769;DHT22;12064;50.890;5.424;2024-02-26T21:13:50;14.60;99.90
23769;DHT22;12064;50.890;5.424;2024-02-26T21:22:41;14.70;99.90
23769;DHT22;12064;50.890;5.424;2024-02-26T21:31:35;14.70;99.90
23769;DHT22;12064;50.890;5.424;2024-02-26T21:40:27;14.70;99.90
23769;DHT22;12064;50.890;5.424;2024-02-26T21:49:18;14.70;99.90
23769;DHT22;12064;50.890;5.424;2024-02-26T21:58:09;14.70;99.90
23769;DHT22;12064;50.890;5.424;2024-02-26T22:06:59;14.70;99.90
23769;DHT22;12064;50.890;5.424;2024-02-26T22:15:50;14.70;99.90
23769;DHT22;12064;50.890;5.424;2024-02-26T22:24:41;14.70;99.90
23769;DHT22;12064;50.890;5.424;2024-02-26T22:33:31;14.70;99.90
23769;DHT22;12064;50.890;5.424;2024-02-26T22:42:22;14.70;99.90
23769;DHT22;12064;50.890;5.424;2024-02-26T22:51:13;14.70;99.90
23769;DHT22;12064;50.890;5.424;2024-02-26T23:00:07;14.70;99.90
23769;DHT22;12064;50.890;5.424;2024-02-26T23:09:26;14.60;99.90
23769;DHT22;12064;50.890;5.424;2024-02-26T23:18:17;14.60;99.90
23769;DHT22;12064;50.890;5.424;2024-02-26T23:27:07;14.60;99.90
23769;DHT22;12064;50.890;5.424;2024-02-26T23:35:58;14.60;99.90
23769;DHT22;12064;50.890;5.424;2024-02-26T23:44:49;14.60;99.90
23769;DHT22;12064;50.890;5.424;2024-02-26T23:53:41;14.60;99.90
